KPSO

Details ICAO KPSO
Name STEVENS FIELD
Region United States
Timezone America/Denver (UTC-7.0)
Plans Departing 3
Arriving 8
Stats Elevation 7,700 ft / 2,347 m (AMSL)
Location 37.286254° -107.056010°
Runways 1
Magnetic Variation 8.971° E
Sunrise 2017-12-11 14:13:50 UTC / 2017-12-11 07:13:50 Local
Sunset 2017-12-11 23:52:18 UTC / 2017-12-11 16:52:18 Local
Advertisement - Login to hide

Runways

ID Width Length Bearing (true) Bearing (mag) Surface Threshold Offset Overrun Length
01 100 ft / 30 m 8,111 ft / 2,472 m 23.70° 14.73° Asphalt 0 ft / 0 m 0 ft / 0 m
19 100 ft / 30 m 8,111 ft / 2,472 m 203.71° 194.74° Asphalt 0 ft / 0 m 0 ft / 0 m

Map

Weather


0- 5 10 15 20 25 30 35+ Temperature / ° C

Clouds and Precipitation
Forecast for 2017-12-12 00:00 UTC. Updated 24 minutes ago

Ground ~20,000 ft ~40,000 ft Winds

METAR

KPSO 111935Z AUTO 21007KT 10SM CLR 13/M23 A3042 RMK AO2 T01251231

TAF

Not found

Frequencies

Unicom 122.70 MHz CTAF/UNICOM
Warning: Do not use this data for real-world aviation or navigation. No guarantee of current accuracy is given.